Time;durP1;ratioP1;P1;durP2;ratioP2;P2;SDS_P1;SDS_P2;PMS_P1;PMS_P2;Temp;Humidity;BMP_temperature;BMP_pressure;BME280_temperature;BME280_humidity;BME280_pressure;Samples;Min_cycle;Max_cycle;Signal;HPM_P1;HPM_P2
2022/04/26 03:37:05;;;;;;;10.32;7.20;;;;;;;;;;4973868;28;20509;-63
2022/04/26 03:39:34;;;;;;;10.90;6.38;;;;;;;;;;4972129;28;20017;-63
2022/04/26 03:42:02;;;;;;;12.15;7.00;;;;;;;;;;4971954;28;20370;-63
2022/04/26 03:44:28;;;;;;;11.65;7.28;;;;;;;;;;4971821;28;20448;-63
2022/04/26 03:46:54;;;;;;;10.45;7.03;;;;;;;;;;4972091;28;20056;-63
2022/04/26 03:49:21;;;;;;;10.40;6.10;;;;;;;;;;4972584;28;20425;-64
2022/04/26 03:51:46;;;;;;;12.57;8.00;;;;;;;;;;4971534;28;20029;-63
2022/04/26 03:54:11;;;;;;;12.57;7.68;;;;;;;;;;4971676;28;20511;-64
2022/04/26 03:56:37;;;;;;;11.35;7.47;;;;;;;;;;4971175;28;20507;-63
2022/04/26 03:59:02;;;;;;;11.85;7.07;;;;;;;;;;4971734;28;20428;-63
2022/04/26 04:01:27;;;;;;;10.77;6.63;;;;;;;;;;4971087;28;20353;-63
2022/04/26 04:03:53;;;;;;;11.05;6.25;;;;;;;;;;4971526;28;20464;-63
2022/04/26 04:06:18;;;;;;;11.35;6.95;;;;;;;;;;4971276;28;20429;-63
2022/04/26 04:08:43;;;;;;;10.35;6.88;;;;;;;;;;4970853;28;20532;-63
2022/04/26 04:11:09;;;;;;;13.00;7.13;;;;;;;;;;4971408;28;20030;-63
2022/04/26 04:13:34;;;;;;;13.93;7.85;;;;;;;;;;4972613;28;20496;-63
2022/04/26 04:15:59;;;;;;;11.32;7.03;;;;;;;;;;4971077;28;20424;-64
2022/04/26 04:21:13;;;;;;;10.30;6.75;;;;;;;;;;4933690;28;20341;-63
2022/04/26 04:23:40;;;;;;;9.38;6.40;;;;;;;;;;4971495;28;20352;-64
2022/04/26 04:26:06;;;;;;;12.23;7.28;;;;;;;;;;4971740;28;20599;-63
2022/04/26 04:28:32;;;;;;;9.50;6.68;;;;;;;;;;4971056;28;20029;-63
2022/04/26 04:30:58;;;;;;;12.98;7.30;;;;;;;;;;4970418;28;20329;-63
2022/04/26 04:33:23;;;;;;;10.93;6.82;;;;;;;;;;4970742;28;20340;-63
2022/04/26 04:35:49;;;;;;;11.85;6.63;;;;;;;;;;4971144;28;20440;-63
2022/04/26 04:38:14;;;;;;;10.85;6.72;;;;;;;;;;4970738;28;20461;-63
2022/04/26 04:40:39;;;;;;;10.63;6.95;;;;;;;;;;4970301;28;20052;-63
2022/04/26 04:43:05;;;;;;;12.02;7.45;;;;;;;;;;4970755;28;20433;-62
2022/04/26 04:45:31;;;;;;;12.00;6.53;;;;;;;;;;4970499;28;20033;-62
2022/04/26 04:47:56;;;;;;;13.63;7.28;;;;;;;;;;4953045;28;20456;-63
2022/04/26 04:50:21;;;;;;;13.40;6.78;;;;;;;;;;4970353;28;20468;-64
2022/04/26 04:52:47;;;;;;;9.80;6.20;;;;;;;;;;4971950;28;20128;-62
2022/04/26 04:55:13;;;;;;;12.00;6.53;;;;;;;;;;4970274;28;20077;-63
2022/04/26 04:57:38;;;;;;;11.77;7.28;;;;;;;;;;4971983;28;20471;-63
2022/04/26 05:00:04;;;;;;;11.68;7.13;;;;;;;;;;4970674;28;20310;-63
2022/04/26 05:02:29;;;;;;;11.43;6.55;;;;;;;;;;4970412;28;20029;-63
2022/04/26 05:04:55;;;;;;;11.05;6.72;;;;;;;;;;4970052;28;20423;-63
2022/04/26 05:07:20;;;;;;;10.82;7.43;;;;;;;;;;4971088;28;20590;-63
2022/04/26 05:09:45;;;;;;;11.43;7.05;;;;;;;;;;4970480;28;20191;-63
2022/04/26 05:12:10;;;;;;;9.57;5.88;;;;;;;;;;4970483;28;20520;-63
2022/04/26 05:14:36;;;;;;;7.68;5.85;;;;;;;;;;4970634;28;20417;-63
2022/04/26 05:17:01;;;;;;;11.27;7.03;;;;;;;;;;4971378;28;20348;-64
2022/04/26 05:19:26;;;;;;;12.85;6.82;;;;;;;;;;4969917;28;20483;-64
2022/04/26 05:21:52;;;;;;;10.50;6.15;;;;;;;;;;4970276;28;20100;-63
2022/04/26 05:27:01;;;;;;;8.77;5.88;;;;;;;;;;4970268;28;20471;-64
2022/04/26 05:29:26;;;;;;;11.38;6.95;;;;;;;;;;4970172;28;20436;-64
2022/04/26 05:31:52;;;;;;;11.82;6.50;;;;;;;;;;4969633;28;20413;-63
2022/04/26 05:34:17;;;;;;;10.13;6.03;;;;;;;;;;4969815;28;20467;-64
2022/04/26 05:36:42;;;;;;;10.85;7.00;;;;;;;;;;4969660;28;20425;-64
2022/04/26 05:39:08;;;;;;;11.93;7.30;;;;;;;;;;4969729;28;20436;-62
2022/04/26 05:41:33;;;;;;;11.45;6.90;;;;;;;;;;4969669;28;20476;-63
2022/04/26 05:43:58;;;;;;;14.88;8.15;;;;;;;;;;4951908;28;20413;-64
2022/04/26 05:46:24;;;;;;;12.60;7.47;;;;;;;;;;4970638;28;20140;-63
2022/04/26 05:48:49;;;;;;;14.45;7.03;;;;;;;;;;4969093;28;20017;-64
2022/04/26 05:51:14;;;;;;;11.95;7.72;;;;;;;;;;4969714;28;20510;-63
2022/04/26 05:53:40;;;;;;;13.60;7.30;;;;;;;;;;4969094;28;20450;-63
2022/04/26 05:56:06;;;;;;;14.43;7.10;;;;;;;;;;4969391;28;20470;-63
2022/04/26 05:58:31;;;;;;;12.15;6.68;;;;;;;;;;4969255;28;20495;-63
2022/04/26 06:00:57;;;;;;;11.93;6.43;;;;;;;;;;4969349;28;20455;-64
2022/04/26 06:03:23;;;;;;;10.27;7.20;;;;;;;;;;4969023;28;20428;-64
2022/04/26 06:05:48;;;;;;;10.40;6.38;;;;;;;;;;4969676;28;20029;-62
2022/04/26 06:08:13;;;;;;;12.30;7.57;;;;;;;;;;4968837;28;20484;-63
2022/04/26 06:10:39;;;;;;;12.10;7.15;;;;;;;;;;4969402;28;20022;-64
2022/04/26 06:13:05;;;;;;;10.75;6.97;;;;;;;;;;4970160;28;20341;-63
2022/04/26 06:15:30;;;;;;;14.00;7.85;;;;;;;;;;4968946;28;20108;-63
2022/04/26 06:17:55;;;;;;;11.15;7.07;;;;;;;;;;4969205;28;20413;-63
2022/04/26 06:20:23;;;;;;;14.63;7.78;;;;;;;;;;4970254;28;20450;-63
2022/04/26 06:22:49;;;;;;;11.73;7.35;;;;;;;;;;4969868;28;20475;-63
2022/04/26 06:25:14;;;;;;;11.77;7.22;;;;;;;;;;4968898;28;20448;-63
2022/04/26 06:27:39;;;;;;;11.50;6.88;;;;;;;;;;4970285;28;20049;-63
2022/04/26 06:30:05;;;;;;;11.98;7.95;;;;;;;;;;4968951;28;20095;-63
2022/04/26 06:32:30;;;;;;;11.98;7.57;;;;;;;;;;4970546;28;20042;-63
2022/04/26 06:34:56;;;;;;;12.77;7.72;;;;;;;;;;4968909;28;20482;-63
2022/04/26 06:37:23;;;;;;;13.48;7.00;;;;;;;;;;4969588;28;20380;-63
2022/04/26 06:39:48;;;;;;;12.43;7.25;;;;;;;;;;4969002;28;20429;-62
2022/04/26 06:42:14;;;;;;;13.15;7.30;;;;;;;;;;4969191;28;20341;-63
2022/04/26 06:44:39;;;;;;;11.48;7.10;;;;;;;;;;4968861;28;20337;-63
2022/04/26 06:47:05;;;;;;;12.02;7.30;;;;;;;;;;4968701;28;20329;-64
2022/04/26 06:49:30;;;;;;;11.40;7.28;;;;;;;;;;4968703;28;20369;-64
2022/04/26 06:51:55;;;;;;;12.88;7.88;;;;;;;;;;4968788;28;20512;-64
2022/04/26 06:54:21;;;;;;;13.75;6.80;;;;;;;;;;4969261;28;20025;-64
2022/04/26 06:56:46;;;;;;;12.25;8.07;;;;;;;;;;4971324;28;20318;-64
2022/04/26 06:59:13;;;;;;;11.85;6.93;;;;;;;;;;4972781;28;20356;-64
2022/04/26 07:01:39;;;;;;;14.48;7.55;;;;;;;;;;4972877;28;20056;-63
2022/04/26 07:04:04;;;;;;;12.80;7.70;;;;;;;;;;4972583;28;20432;-63
2022/04/26 07:06:29;;;;;;;13.63;7.95;;;;;;;;;;4973325;28;20451;-63
2022/04/26 07:08:56;;;;;;;15.15;7.20;;;;;;;;;;4972248;28;20398;-64
2022/04/26 07:11:21;;;;;;;11.55;7.55;;;;;;;;;;4972370;28;20124;-63
2022/04/26 07:13:47;;;;;;;12.13;7.32;;;;;;;;;;4972246;28;20029;-63
2022/04/26 07:16:12;;;;;;;14.70;7.25;;;;;;;;;;4972587;28;20503;-63
2022/04/26 07:18:38;;;;;;;14.57;7.50;;;;;;;;;;4971904;28;20061;-63
2022/04/26 07:21:03;;;;;;;13.30;7.53;;;;;;;;;;4972323;28;20025;-63
2022/04/26 07:23:28;;;;;;;12.00;6.90;;;;;;;;;;4973130;28;20491;-63
2022/04/26 07:25:55;;;;;;;11.70;7.13;;;;;;;;;;4972036;28;20421;-63
2022/04/26 07:28:21;;;;;;;10.13;7.15;;;;;;;;;;4972303;28;20444;-63
2022/04/26 07:30:46;;;;;;;14.65;7.00;;;;;;;;;;4973562;28;20357;-63
2022/04/26 07:35:56;;;;;;;11.57;7.43;;;;;;;;;;4972076;28;20419;-63
2022/04/26 07:38:21;;;;;;;10.35;6.65;;;;;;;;;;4971837;28;20356;-63
2022/04/26 07:40:47;;;;;;;12.23;7.45;;;;;;;;;;4972703;28;20515;-64
2022/04/26 07:43:13;;;;;;;13.00;6.75;;;;;;;;;;4972149;28;20349;-63
2022/04/26 07:45:39;;;;;;;12.13;7.97;;;;;;;;;;4972071;28;20029;-64
2022/04/26 07:48:06;;;;;;;12.20;6.40;;;;;;;;;;4971805;28;20393;-64
2022/04/26 07:50:33;;;;;;;10.30;6.50;;;;;;;;;;4971554;28;20321;-64
2022/04/26 07:52:59;;;;;;;13.23;6.53;;;;;;;;;;4971499;28;20417;-63
2022/04/26 07:55:24;;;;;;;11.88;6.78;;;;;;;;;;4972331;28;20371;-63
2022/04/26 07:57:49;;;;;;;10.98;7.15;;;;;;;;;;4971524;28;20447;-63
2022/04/26 08:00:16;;;;;;;11.43;6.80;;;;;;;;;;4971713;28;20104;-63
2022/04/26 08:02:41;;;;;;;11.15;6.82;;;;;;;;;;4971806;28;20025;-63
2022/04/26 08:05:07;;;;;;;10.30;6.18;;;;;;;;;;4971928;28;20029;-63
2022/04/26 08:07:34;;;;;;;10.45;6.57;;;;;;;;;;4971574;28;20427;-64
2022/04/26 08:09:59;;;;;;;13.43;7.03;;;;;;;;;;4972644;28;20459;-63
2022/04/26 08:12:25;;;;;;;10.93;6.38;;;;;;;;;;4971216;28;20356;-63
2022/04/26 08:14:50;;;;;;;10.25;6.15;;;;;;;;;;4971487;28;20496;-66
2022/04/26 08:17:15;;;;;;;10.98;6.10;;;;;;;;;;4970857;28;20029;-63
2022/04/26 08:19:42;;;;;;;12.90;6.50;;;;;;;;;;4971384;28;20500;-63
2022/04/26 08:22:07;;;;;;;10.27;6.18;;;;;;;;;;4970914;28;20325;-64
2022/04/26 08:27:22;;;;;;;10.80;5.88;;;;;;;;;;4972012;28;20060;-63
2022/04/26 08:29:48;;;;;;;11.48;6.22;;;;;;;;;;4970937;28;20420;-63
2022/04/26 08:32:14;;;;;;;9.40;5.65;;;;;;;;;;4970521;28;20445;-62
2022/04/26 08:34:40;;;;;;;9.20;6.25;;;;;;;;;;4970745;28;20494;-63
2022/04/26 08:37:05;;;;;;;8.27;5.53;;;;;;;;;;4971740;28;20349;-63
2022/04/26 08:39:31;;;;;;;11.35;5.93;;;;;;;;;;4970993;28;20372;-65
2022/04/26 08:41:57;;;;;;;11.60;6.75;;;;;;;;;;4970756;28;20437;-64
2022/04/26 08:44:25;;;;;;;12.65;6.55;;;;;;;;;;4953137;28;20449;-63
2022/04/26 08:52:19;;;;;;;13.77;6.63;;;;;;;;;;4971032;28;20352;-63
2022/04/26 08:54:44;;;;;;;10.63;6.10;;;;;;;;;;4970783;28;20088;-63
2022/04/26 08:57:12;;;;;;;12.55;6.18;;;;;;;;;;4970352;28;20123;-63
2022/04/26 08:59:51;;;;;;;9.30;5.75;;;;;;;;;;4970788;28;20469;-64
2022/04/26 09:02:21;;;;;;;11.38;6.35;;;;;;;;;;4970599;28;20384;-64
2022/04/26 09:04:49;;;;;;;12.40;6.28;;;;;;;;;;4952908;28;20409;-63
2022/04/26 09:07:34;;;;;;;10.13;5.57;;;;;;;;;;4970152;28;20452;-63
2022/04/26 09:10:19;;;;;;;11.20;5.50;;;;;;;;;;4972134;28;20025;-64
2022/04/26 09:12:56;;;;;;;10.75;6.03;;;;;;;;;;4969719;28;20551;-63
2022/04/26 09:15:23;;;;;;;9.27;6.03;;;;;;;;;;4952225;28;20393;-64
2022/04/26 09:17:48;;;;;;;12.70;5.70;;;;;;;;;;4969929;28;20368;-63
2022/04/26 09:20:13;;;;;;;15.15;6.93;;;;;;;;;;4970307;28;20534;-63
2022/04/26 09:22:39;;;;;;;8.38;5.07;;;;;;;;;;4969794;28;20425;-64
2022/04/26 09:25:06;;;;;;;8.77;5.82;;;;;;;;;;4970104;28;20438;-63
2022/04/26 09:27:41;;;;;;;10.00;5.35;;;;;;;;;;4969949;28;20429;-63
2022/04/26 09:30:11;;;;;;;11.50;6.10;;;;;;;;;;4969966;28;20452;-64
2022/04/26 09:32:48;;;;;;;9.07;5.30;;;;;;;;;;4971519;28;20422;-65
2022/04/26 09:35:18;;;;;;;8.35;5.25;;;;;;;;;;4970718;28;20333;-63
2022/04/26 09:37:44;;;;;;;7.85;5.30;;;;;;;;;;4970327;28;20119;-63
2022/04/26 09:40:11;;;;;;;9.50;4.72;;;;;;;;;;4970484;28;20033;-63
2022/04/26 09:42:36;;;;;;;8.80;4.75;;;;;;;;;;4969480;28;20445;-63
2022/04/26 09:45:09;;;;;;;9.80;5.70;;;;;;;;;;4970043;28;20445;-63
2022/04/26 09:47:42;;;;;;;11.65;5.70;;;;;;;;;;4969478;28;20325;-64
2022/04/26 09:50:09;;;;;;;10.48;5.80;;;;;;;;;;4969435;28;20408;-63
2022/04/26 09:52:39;;;;;;;10.75;5.72;;;;;;;;;;4969121;28;20456;-63
2022/04/26 09:55:06;;;;;;;8.85;4.80;;;;;;;;;;4969538;28;20464;-63
2022/04/26 09:57:35;;;;;;;8.23;5.05;;;;;;;;;;4969902;28;20025;-64
2022/04/26 10:00:03;;;;;;;6.45;4.78;;;;;;;;;;4969270;28;20345;-63
2022/04/26 10:02:32;;;;;;;10.18;5.72;;;;;;;;;;4969408;28;20538;-63
2022/04/26 10:05:20;;;;;;;7.10;4.50;;;;;;;;;;4969277;28;20551;-62
2022/04/26 10:07:46;;;;;;;11.83;5.80;;;;;;;;;;4968707;28;20483;-63
2022/04/26 10:10:13;;;;;;;12.57;5.90;;;;;;;;;;4969200;28;20441;-64
2022/04/26 10:12:39;;;;;;;9.85;5.60;;;;;;;;;;4968963;28;20491;-63
2022/04/26 10:15:07;;;;;;;9.57;4.80;;;;;;;;;;4970132;28;20068;-63
2022/04/26 10:17:32;;;;;;;10.00;5.57;;;;;;;;;;4969255;28;20446;-64
2022/04/26 10:20:00;;;;;;;8.38;4.95;;;;;;;;;;4969487;28;20454;-63
2022/04/26 10:22:58;;;;;;;8.50;5.25;;;;;;;;;;4969052;28;20033;-63
2022/04/26 10:25:25;;;;;;;8.93;5.28;;;;;;;;;;4915762;28;20396;-64
2022/04/26 10:28:23;;;;;;;8.75;5.45;;;;;;;;;;4969088;28;20454;-64
2022/04/26 10:30:52;;;;;;;7.82;4.95;;;;;;;;;;4972128;28;20029;-64
2022/04/26 10:33:41;;;;;;;8.15;5.18;;;;;;;;;;4973577;28;20436;-63
2022/04/26 10:36:28;;;;;;;8.85;4.25;;;;;;;;;;4960292;28;20114;-64
2022/04/26 10:39:06;;;;;;;8.27;4.72;;;;;;;;;;4973057;28;20441;-64
2022/04/26 10:41:45;;;;;;;8.05;4.70;;;;;;;;;;4973117;28;20080;-63
2022/04/26 10:44:13;;;;;;;;;;;;;;;;;;4973903;28;20447;-63
2022/04/26 10:46:42;;;;;;;6.90;4.50;;;;;;;;;;4973944;28;20434;-63
2022/04/26 10:49:23;;;;;;;9.82;5.18;;;;;;;;;;4974281;28;20444;-63
2022/04/26 10:51:53;;;;;;;7.47;4.60;;;;;;;;;;4972466;28;20453;-64
2022/04/26 10:54:44;;;;;;;;;;;;;;;;;;4973838;28;20364;-63
2022/04/26 10:57:10;;;;;;;8.63;4.43;;;;;;;;;;4941804;28;20318;-64
2022/04/26 10:59:42;;;;;;;8.82;5.18;;;;;;;;;;4972763;28;20065;-63
2022/04/26 11:02:12;;;;;;;9.35;4.45;;;;;;;;;;4973159;28;20461;-63
2022/04/26 11:04:38;;;;;;;9.30;4.97;;;;;;;;;;4973106;28;20048;-63
2022/04/26 11:07:14;;;;;;;8.82;5.53;;;;;;;;;;4972371;28;20457;-63
2022/04/26 11:09:49;;;;;;;7.88;4.47;;;;;;;;;;4971871;28;20100;-64
2022/04/26 11:12:19;;;;;;;7.70;4.60;;;;;;;;;;4972655;28;20499;-62
2022/04/26 11:14:45;;;;;;;7.55;4.50;;;;;;;;;;4972271;28;20365;-63
2022/04/26 11:17:11;;;;;;;8.20;4.70;;;;;;;;;;4972373;28;20404;-63
2022/04/26 11:19:37;;;;;;;6.35;3.72;;;;;;;;;;4973692;28;20444;-63
2022/04/26 11:22:07;;;;;;;8.55;4.47;;;;;;;;;;4972292;28;20498;-63
2022/04/26 11:30:03;;;;;;;6.65;3.60;;;;;;;;;;4973610;28;20431;-63
2022/04/26 11:32:29;;;;;;;6.15;4.30;;;;;;;;;;4972001;28;20363;-64
2022/04/26 11:34:54;;;;;;;7.25;4.20;;;;;;;;;;4972939;28;20034;-63
2022/04/26 11:37:20;;;;;;;6.10;3.63;;;;;;;;;;4972415;28;20435;-63
2022/04/26 11:39:46;;;;;;;7.47;4.00;;;;;;;;;;4972247;28;20502;-63
2022/04/26 11:42:12;;;;;;;6.13;3.85;;;;;;;;;;4971079;28;20433;-63
2022/04/26 11:44:55;;;;;;;7.18;3.65;;;;;;;;;;4971500;28;20064;-64
2022/04/26 11:47:20;;;;;;;5.32;3.20;;;;;;;;;;4972333;28;20361;-63
2022/04/26 11:49:45;;;;;;;8.02;3.50;;;;;;;;;;4954654;28;20029;-63
2022/04/26 11:52:11;;;;;;;6.43;3.47;;;;;;;;;;4971716;28;20052;-63
2022/04/26 11:54:36;;;;;;;8.40;4.32;;;;;;;;;;4971597;28;20101;-62
2022/04/26 11:57:07;;;;;;;5.65;4.05;;;;;;;;;;4972956;28;20382;-63
2022/04/26 11:59:34;;;;;;;6.97;3.85;;;;;;;;;;4971674;28;20523;-63
2022/04/26 12:02:00;;;;;;;6.07;3.90;;;;;;;;;;4972186;28;20429;-62
2022/04/26 12:04:25;;;;;;;7.72;4.38;;;;;;;;;;4971330;28;20440;-63
2022/04/26 12:06:52;;;;;;;6.85;4.20;;;;;;;;;;4953864;28;20436;-62
2022/04/26 12:09:17;;;;;;;8.07;3.80;;;;;;;;;;4953166;28;20506;-63
2022/04/26 12:11:44;;;;;;;7.28;4.20;;;;;;;;;;4971615;28;20453;-63
2022/04/26 12:14:16;;;;;;;6.75;3.97;;;;;;;;;;4971235;28;20060;-64
2022/04/26 12:16:44;;;;;;;6.82;3.90;;;;;;;;;;4954436;28;20449;-62
2022/04/26 12:19:10;;;;;;;5.53;3.67;;;;;;;;;;4971458;28;20472;-63
2022/04/26 12:21:48;;;;;;;7.35;4.38;;;;;;;;;;4971428;28;20345;-63
2022/04/26 12:24:15;;;;;;;5.28;3.20;;;;;;;;;;4971444;28;20441;-62
2022/04/26 12:26:54;;;;;;;6.05;3.60;;;;;;;;;;4970677;28;20360;-64
2022/04/26 12:29:21;;;;;;;6.82;3.88;;;;;;;;;;4972196;28;20468;-63
2022/04/26 12:31:50;;;;;;;7.10;3.70;;;;;;;;;;4970905;28;20601;-62
2022/04/26 12:34:20;;;;;;;5.97;3.30;;;;;;;;;;4971980;28;20482;-63
2022/04/26 12:36:49;;;;;;;5.15;3.47;;;;;;;;;;4970594;28;20498;-63
2022/04/26 12:39:14;;;;;;;5.95;3.40;;;;;;;;;;4972569;28;20306;-63
2022/04/26 12:41:51;;;;;;;6.40;3.47;;;;;;;;;;4970631;28;20372;-63
2022/04/26 12:44:16;;;;;;;4.82;3.08;;;;;;;;;;4970940;28;20448;-63
2022/04/26 12:52:43;;;;;;;5.78;3.67;;;;;;;;;;4971022;28;20471;-63
2022/04/26 12:55:09;;;;;;;4.85;3.13;;;;;;;;;;4970124;28;20464;-63
2022/04/26 12:57:47;;;;;;;6.07;3.03;;;;;;;;;;4970383;28;20060;-64
2022/04/26 13:00:13;;;;;;;5.07;3.43;;;;;;;;;;4970296;28;20419;-64
2022/04/26 13:02:38;;;;;;;7.05;3.45;;;;;;;;;;4970031;28;20390;-64
2022/04/26 13:05:04;;;;;;;5.15;3.25;;;;;;;;;;4970226;28;20457;-63
2022/04/26 13:07:29;;;;;;;5.93;3.53;;;;;;;;;;4969756;28;20337;-65
2022/04/26 13:09:55;;;;;;;6.78;3.30;;;;;;;;;;4970187;28;20037;-63
2022/04/26 13:12:20;;;;;;;6.88;3.25;;;;;;;;;;4970662;28;20465;-64
2022/04/26 13:14:45;;;;;;;4.43;3.28;;;;;;;;;;4970101;28;20388;-63
2022/04/26 13:17:11;;;;;;;6.38;3.58;;;;;;;;;;4969907;28;20349;-62
2022/04/26 13:19:36;;;;;;;5.35;3.50;;;;;;;;;;4970518;28;20030;-63
2022/04/26 13:22:01;;;;;;;4.82;2.92;;;;;;;;;;4969718;28;20417;-63
2022/04/26 13:24:30;;;;;;;5.57;3.63;;;;;;;;;;4970110;28;20421;-63
2022/04/26 13:26:55;;;;;;;3.75;2.85;;;;;;;;;;4969692;28;20356;-63
2022/04/26 13:29:21;;;;;;;5.70;3.25;;;;;;;;;;4969772;28;20341;-63
2022/04/26 13:31:46;;;;;;;5.97;2.92;;;;;;;;;;4969663;28;20489;-64
2022/04/26 13:34:12;;;;;;;3.88;2.90;;;;;;;;;;4970078;28;20527;-64
2022/04/26 13:36:37;;;;;;;5.45;3.47;;;;;;;;;;4969656;28;20030;-63
2022/04/26 13:39:03;;;;;;;6.05;3.58;;;;;;;;;;4969572;28;20460;-63
2022/04/26 13:41:28;;;;;;;4.75;3.08;;;;;;;;;;4969406;28;20503;-63
2022/04/26 13:43:54;;;;;;;4.28;2.85;;;;;;;;;;4970076;28;20433;-63
2022/04/26 13:46:19;;;;;;;5.10;3.20;;;;;;;;;;4969722;28;20029;-63
2022/04/26 13:48:46;;;;;;;7.07;3.42;;;;;;;;;;4969562;28;20494;-63
2022/04/26 13:51:11;;;;;;;7.10;3.10;;;;;;;;;;4970258;28;20393;-63
2022/04/26 13:53:36;;;;;;;8.40;3.55;;;;;;;;;;4969644;28;20349;-64
2022/04/26 13:56:06;;;;;;;6.55;3.22;;;;;;;;;;4969957;28;20076;-63
2022/04/26 13:58:32;;;;;;;6.47;3.17;;;;;;;;;;4969208;28;20045;-63
2022/04/26 14:00:57;;;;;;;5.95;3.25;;;;;;;;;;4969271;28;20040;-64
2022/04/26 14:03:22;;;;;;;4.15;2.72;;;;;;;;;;4969293;28;20528;-63
2022/04/26 14:05:48;;;;;;;4.57;3.10;;;;;;;;;;4968885;28;20373;-63
2022/04/26 14:08:13;;;;;;;5.35;3.03;;;;;;;;;;4969018;28;20433;-63
2022/04/26 14:10:38;;;;;;;5.35;3.30;;;;;;;;;;4969465;28;20415;-64
2022/04/26 14:13:04;;;;;;;5.00;2.78;;;;;;;;;;4969330;28;20330;-64
2022/04/26 14:23:52;;;;;;;6.15;2.90;;;;;;;;;;4970391;28;20611;-63
2022/04/26 14:26:18;;;;;;;4.85;2.83;;;;;;;;;;4969122;28;20515;-64
2022/04/26 14:28:44;;;;;;;4.30;2.22;;;;;;;;;;4969131;28;20452;-63
2022/04/26 14:31:09;;;;;;;6.18;3.20;;;;;;;;;;4969330;28;20116;-62
2022/04/26 14:33:34;;;;;;;6.65;3.60;;;;;;;;;;4968941;28;20494;-63
2022/04/26 14:36:00;;;;;;;4.35;2.92;;;;;;;;;;4968922;28;20030;-63
2022/04/26 14:38:27;;;;;;;5.18;2.97;;;;;;;;;;4968973;28;20472;-63
2022/04/26 14:40:53;;;;;;;6.00;3.08;;;;;;;;;;4968857;28;20464;-63
2022/04/26 14:43:18;;;;;;;3.28;2.30;;;;;;;;;;4969028;28;20574;-63
2022/04/26 14:45:45;;;;;;;6.75;3.05;;;;;;;;;;4969549;28;20417;-64
2022/04/26 14:48:11;;;;;;;6.35;3.13;;;;;;;;;;4969066;28;20053;-64
2022/04/26 14:50:38;;;;;;;5.50;3.03;;;;;;;;;;4969146;28;20418;-63
2022/04/26 14:53:03;;;;;;;5.03;2.92;;;;;;;;;;4968912;28;20380;-64
2022/04/26 14:55:29;;;;;;;4.20;2.60;;;;;;;;;;4968777;28;20372;-63
2022/04/26 14:57:54;;;;;;;3.85;2.75;;;;;;;;;;4968494;28;20419;-63
2022/04/26 15:00:19;;;;;;;5.10;2.80;;;;;;;;;;4969332;28;20420;-63
2022/04/26 15:02:44;;;;;;;5.75;2.90;;;;;;;;;;4968837;28;20328;-63
2022/04/26 15:05:12;;;;;;;4.07;2.67;;;;;;;;;;4969318;28;20340;-63
2022/04/26 15:10:22;;;;;;;6.75;3.08;;;;;;;;;;4953875;28;20388;-63
2022/04/26 15:18:17;;;;;;;4.72;3.10;;;;;;;;;;4972948;28;20134;-65
2022/04/26 15:20:49;;;;;;;3.60;2.40;;;;;;;;;;4973592;28;20508;-63
2022/04/26 15:23:15;;;;;;;5.20;2.72;;;;;;;;;;4972281;28;20361;-64
2022/04/26 15:25:41;;;;;;;4.35;2.55;;;;;;;;;;4972514;28;20415;-64
2022/04/26 15:28:08;;;;;;;4.97;3.42;;;;;;;;;;4971984;28;20400;-63
2022/04/26 15:30:41;;;;;;;5.95;3.42;;;;;;;;;;4972127;28;20452;-64
2022/04/26 15:33:07;;;;;;;4.82;3.20;;;;;;;;;;4971874;28;20364;-63
2022/04/26 15:35:32;;;;;;;6.28;3.13;;;;;;;;;;4972160;28;20387;-64
2022/04/26 15:37:58;;;;;;;8.73;3.67;;;;;;;;;;4972583;28;20412;-63
2022/04/26 15:40:23;;;;;;;7.10;2.97;;;;;;;;;;4972047;28;20029;-64
2022/04/26 15:42:48;;;;;;;4.82;3.15;;;;;;;;;;4971931;28;20060;-63
2022/04/26 15:45:14;;;;;;;6.57;2.92;;;;;;;;;;4971986;28;20349;-64
2022/04/26 15:47:39;;;;;;;5.45;3.30;;;;;;;;;;4971823;28;20348;-63
2022/04/26 15:50:05;;;;;;;5.65;3.63;;;;;;;;;;4971597;28;20456;-63
2022/04/26 15:52:30;;;;;;;6.95;3.72;;;;;;;;;;4971936;28;20503;-65
2022/04/26 15:54:56;;;;;;;5.30;3.00;;;;;;;;;;4971749;28;20440;-64
2022/04/26 15:57:21;;;;;;;5.97;3.50;;;;;;;;;;4971681;28;20391;-63
2022/04/26 15:59:46;;;;;;;6.82;3.95;;;;;;;;;;4972210;28;20029;-64
2022/04/26 16:02:12;;;;;;;6.05;3.75;;;;;;;;;;4971517;28;20508;-63
2022/04/26 16:04:37;;;;;;;7.72;3.45;;;;;;;;;;4971137;28;20051;-63
2022/04/26 16:07:02;;;;;;;6.45;4.13;;;;;;;;;;4971539;28;20033;-63
2022/04/26 16:20:30;;;;;;;4.88;3.33;;;;;;;;;;4971665;28;20397;-64
2022/04/26 16:22:56;;;;;;;6.80;3.60;;;;;;;;;;4971289;28;20415;-63
2022/04/26 16:25:22;;;;;;;4.88;3.35;;;;;;;;;;4971781;28;20441;-63
2022/04/26 16:27:48;;;;;;;8.75;4.70;;;;;;;;;;4971380;28;20399;-63
2022/04/26 16:30:15;;;;;;;8.15;4.07;;;;;;;;;;4971567;28;20515;-63
2022/04/26 16:32:40;;;;;;;7.97;3.78;;;;;;;;;;4970691;28;20099;-63
2022/04/26 16:35:08;;;;;;;6.05;4.03;;;;;;;;;;4971644;28;20080;-63
2022/04/26 16:37:34;;;;;;;7.63;3.67;;;;;;;;;;4970670;28;20030;-64
2022/04/26 16:39:59;;;;;;;8.52;4.50;;;;;;;;;;4972472;28;20432;-64
2022/04/26 16:42:24;;;;;;;6.13;3.65;;;;;;;;;;4970505;28;20433;-62
2022/04/26 16:44:50;;;;;;;9.80;4.50;;;;;;;;;;4970910;28;20401;-63
2022/04/26 16:47:15;;;;;;;8.68;4.60;;;;;;;;;;4970332;28;20068;-64
2022/04/26 16:49:40;;;;;;;7.38;4.70;;;;;;;;;;4970678;28;20413;-63
2022/04/26 16:52:07;;;;;;;7.32;4.25;;;;;;;;;;4952445;28;20455;-62
2022/04/26 16:54:32;;;;;;;9.75;4.72;;;;;;;;;;4971340;28;20340;-64
2022/04/26 16:56:58;;;;;;;8.98;4.93;;;;;;;;;;4970407;28;20033;-63
2022/04/26 16:59:24;;;;;;;7.72;4.05;;;;;;;;;;4970554;28;20367;-63
2022/04/26 17:01:51;;;;;;;9.38;4.80;;;;;;;;;;4971805;28;20030;-64
2022/04/26 17:04:17;;;;;;;11.30;4.70;;;;;;;;;;4971734;28;20336;-63
2022/04/26 17:06:42;;;;;;;11.30;5.53;;;;;;;;;;4970719;28;20392;-63
2022/04/26 17:09:08;;;;;;;10.02;5.22;;;;;;;;;;4969627;28;20400;-64
2022/04/26 17:11:43;;;;;;;9.63;5.50;;;;;;;;;;4970230;28;20100;-64
2022/04/26 17:14:14;;;;;;;8.30;4.15;;;;;;;;;;4970085;28;20421;-63
2022/04/26 17:16:39;;;;;;;10.27;5.53;;;;;;;;;;4970223;28;20444;-63
2022/04/26 17:19:05;;;;;;;7.55;4.22;;;;;;;;;;4971582;28;20417;-64
2022/04/26 17:21:32;;;;;;;9.63;5.15;;;;;;;;;;4970399;28;20348;-64
2022/04/26 17:23:57;;;;;;;9.70;5.38;;;;;;;;;;4970072;28;20417;-63
2022/04/26 17:26:23;;;;;;;9.23;5.05;;;;;;;;;;4969831;28;20329;-64
2022/04/26 17:28:48;;;;;;;9.70;5.20;;;;;;;;;;4969770;28;20505;-63
2022/04/26 17:31:14;;;;;;;12.70;5.93;;;;;;;;;;4970261;28;20053;-63
2022/04/26 17:33:41;;;;;;;10.00;5.22;;;;;;;;;;4969850;28;20466;-64
2022/04/26 17:36:07;;;;;;;11.57;5.35;;;;;;;;;;4970227;28;20681;-63
2022/04/26 17:38:32;;;;;;;10.35;5.93;;;;;;;;;;4969551;28;20385;-64
2022/04/26 17:40:58;;;;;;;11.75;6.18;;;;;;;;;;4969084;28;20379;-64
2022/04/26 17:43:23;;;;;;;12.23;5.40;;;;;;;;;;4969965;28;20449;-63
2022/04/26 17:45:48;;;;;;;13.27;6.10;;;;;;;;;;4969893;28;20094;-64
2022/04/26 17:48:14;;;;;;;12.77;6.00;;;;;;;;;;4969571;28;20446;-64
2022/04/26 17:50:43;;;;;;;14.38;7.10;;;;;;;;;;4969658;28;20455;-63
2022/04/26 17:58:37;;;;;;;12.32;6.15;;;;;;;;;;4970524;28;20452;-63
2022/04/26 18:01:02;;;;;;;10.25;5.60;;;;;;;;;;4969338;28;20394;-63
2022/04/26 18:03:28;;;;;;;15.50;6.85;;;;;;;;;;4969567;28;20394;-64
2022/04/26 18:05:54;;;;;;;13.43;6.57;;;;;;;;;;4969220;28;20334;-64
2022/04/26 18:08:20;;;;;;;13.02;5.95;;;;;;;;;;4969144;28;20430;-63
2022/04/26 18:10:45;;;;;;;15.27;7.63;;;;;;;;;;4969379;28;20531;-64
2022/04/26 18:13:11;;;;;;;15.05;7.15;;;;;;;;;;4969306;28;20072;-63
2022/04/26 18:15:38;;;;;;;14.30;6.68;;;;;;;;;;4969184;28;20388;-63
2022/04/26 18:18:03;;;;;;;16.02;7.20;;;;;;;;;;4969173;28;20325;-63
2022/04/26 18:20:29;;;;;;;15.48;6.95;;;;;;;;;;4968884;28;20377;-63
2022/04/26 18:22:54;;;;;;;18.00;7.85;;;;;;;;;;4969445;28;20369;-64
2022/04/26 18:26:10;;;;;;;16.33;7.40;;;;;;;;;;4969041;28;20345;-63
2022/04/26 18:28:05;;;;;;;18.38;7.57;;;;;;;;;;4969156;28;20385;-63
2022/04/26 18:30:30;;;;;;;19.63;9.18;;;;;;;;;;4968762;28;20347;-63
2022/04/26 18:32:55;;;;;;;20.05;8.70;;;;;;;;;;4969111;28;20504;-64
2022/04/26 18:35:21;;;;;;;15.40;7.50;;;;;;;;;;4969008;28;20472;-62
2022/04/26 18:37:46;;;;;;;17.77;7.68;;;;;;;;;;4970770;28;20405;-63
2022/04/26 18:40:12;;;;;;;20.75;9.23;;;;;;;;;;4968725;28;20391;-64
2022/04/26 18:42:37;;;;;;;21.02;9.30;;;;;;;;;;4968891;28;20470;-65
2022/04/26 18:45:03;;;;;;;19.73;8.35;;;;;;;;;;4968754;28;20527;-64
2022/04/26 18:47:29;;;;;;;18.65;8.30;;;;;;;;;;4969339;28;20344;-63
2022/04/26 18:49:54;;;;;;;18.75;8.55;;;;;;;;;;4969182;28;20318;-63
2022/04/26 18:52:19;;;;;;;17.45;8.57;;;;;;;;;;4972538;28;20396;-63
2022/04/26 18:54:45;;;;;;;18.73;7.97;;;;;;;;;;4972957;28;20218;-63
2022/04/26 18:57:10;;;;;;;16.95;7.43;;;;;;;;;;4972593;28;20507;-63
2022/04/26 18:59:36;;;;;;;15.63;7.90;;;;;;;;;;4972906;28;20387;-64
2022/04/26 19:02:01;;;;;;;15.95;8.27;;;;;;;;;;4973657;28;20030;-64
2022/04/26 19:04:27;;;;;;;20.58;8.27;;;;;;;;;;4972838;28;20506;-63
2022/04/26 19:06:52;;;;;;;22.98;9.27;;;;;;;;;;4955310;28;20451;-63
2022/04/26 19:09:19;;;;;;;25.90;9.38;;;;;;;;;;4972275;28;20476;-62
2022/04/26 19:14:28;;;;;;;17.20;7.57;;;;;;;;;;4972800;28;20116;-63
2022/04/26 19:16:53;;;;;;;22.05;8.95;;;;;;;;;;4972490;28;20460;-64